Terminal Aerodrome Forecast
Issued by NWS Green Bay, WI

Home | Current Version | Previous Version | Graphics & Text | Print | Product List | Glossary On
Versions: 1 2 3 4 5 6 7 8 9 10 11 12 13 14 15 16 17 18 19 20 21 22 23 24 25 26 27 28 29 30 31 32 33
219
FTUS43 KGRB 241501 AAC
TAFGRB
TAF AMD
KGRB 241501Z 2415/2512 22008KT P6SM SCT012 BKN060
     FM242000 23010G16KT P6SM BKN045
     FM242200 26006KT P6SM SCT040 BKN070
     FM250400 26004KT P6SM BKN120=

USA.gov is the U.S. government's official web portal to all federal, state and local government web resources and services.